Time,TemperatureF,DewpointF,PressureIn,WindDirection,WindDirectionDegrees,WindSpeedMPH,WindSpeedGustMPH,Humidity,HourlyPrecipIn,Conditions,Clouds,dailyrainin,SoftwareType,DateUTC
2014-09-22 00:21:00,64.0,56.0,-100.00,NE,47,2.0,4.0,75,-99.99,,,-99.99,,2014-09-22 07:21:00,
2014-09-22 00:52:00,64.0,56.0,-100.00,NE,39,2.0,3.0,75,-99.99,,,-99.99,,2014-09-22 07:52:00,
2014-09-22 01:22:00,64.0,56.0,-100.00,NE,55,1.0,3.0,75,-99.99,,,-99.99,,2014-09-22 08:22:00,
2014-09-22 01:52:00,64.0,56.0,-100.00,NE,48,4.0,7.0,74,-99.99,,,-99.99,,2014-09-22 08:52:00,
2014-09-22 02:22:00,65.0,55.0,-100.00,NE,56,4.0,6.0,70,-99.99,,,-99.99,,2014-09-22 09:22:00,
2014-09-22 02:54:00,64.0,54.0,-100.00,ENE,57,4.0,5.0,71,-99.99,,,-99.99,,2014-09-22 09:54:00,
2014-09-22 03:23:00,64.0,55.0,-100.00,NE,51,2.0,6.0,72,-99.99,,,-99.99,,2014-09-22 10:23:00,
2014-09-22 03:53:00,64.0,55.0,-100.00,NE,43,2.0,4.0,72,-99.99,,,-99.99,,2014-09-22 10:53:00,
2014-09-22 04:23:00,64.0,54.0,-100.00,NE,48,1.0,3.0,71,-99.99,,,-99.99,,2014-09-22 11:23:00,
2014-09-22 04:52:00,63.0,55.0,-100.00,NE,47,4.0,6.0,75,-99.99,,,-99.99,,2014-09-22 11:52:00,
2014-09-22 05:22:00,63.0,55.0,-100.00,NE,53,1.0,5.0,75,-99.99,,,-99.99,,2014-09-22 12:22:00,
2014-09-22 05:52:00,62.0,54.0,-100.00,NE,53,3.0,5.0,75,-99.99,,,-99.99,,2014-09-22 12:52:00,
2014-09-22 06:22:00,63.0,53.0,-100.00,ENE,64,2.0,5.0,70,-99.99,,,-99.99,,2014-09-22 13:22:00,
2014-09-22 06:52:00,63.0,53.0,-100.00,NE,52,3.0,5.0,69,-99.99,,,-99.99,,2014-09-22 13:52:00,
2014-09-22 07:22:00,62.0,52.0,-100.00,NE,47,3.0,4.0,69,-99.99,,,-99.99,,2014-09-22 14:22:00,
2014-09-22 07:52:00,64.0,53.0,-100.00,North,-999,0.0,2.0,68,-99.99,,,-99.99,,2014-09-22 14:52:00,
2014-09-22 08:54:00,66.0,55.0,-100.00,SSE,168,1.0,3.0,68,-99.99,,,-99.99,,2014-09-22 15:54:00,
2014-09-22 09:23:00,67.0,56.0,-100.00,SSW,203,3.0,5.0,68,-99.99,,,-99.99,,2014-09-22 16:23:00,
2014-09-22 09:53:00,69.0,58.0,-100.00,SW,225,3.0,5.0,67,-99.99,,,-99.99,,2014-09-22 16:53:00,
2014-09-22 10:53:00,74.0,57.0,-100.00,South,186,4.0,7.0,55,-99.99,,,-99.99,,2014-09-22 17:53:00,
2014-09-22 11:22:00,76.0,55.0,-100.00,SW,229,4.0,9.0,49,-99.99,,,-99.99,,2014-09-22 18:22:00,
2014-09-22 11:52:00,77.0,56.0,-100.00,SW,235,4.0,10.0,48,-99.99,,,-99.99,,2014-09-22 18:52:00,
2014-09-22 12:22:00,79.0,56.0,-100.00,SW,221,4.0,9.0,45,-99.99,,,-99.99,,2014-09-22 19:22:00,
2014-09-22 12:53:00,81.0,56.0,-100.00,SW,235,3.0,9.0,42,-99.99,,,-99.99,,2014-09-22 19:53:00,
2014-09-22 13:23:00,82.0,55.0,-100.00,SW,216,4.0,11.0,40,-99.99,,,-99.99,,2014-09-22 20:23:00,
2014-09-22 13:52:00,83.0,57.0,-100.00,SSW,192,5.0,10.0,41,-99.99,,,-99.99,,2014-09-22 20:52:00,
2014-09-22 14:22:00,82.0,58.0,-100.00,SW,232,6.0,11.0,44,-99.99,,,-99.99,,2014-09-22 21:22:00,
2014-09-22 14:54:00,82.0,58.0,-100.00,SW,235,5.0,10.0,44,-99.99,,,-99.99,,2014-09-22 21:54:00,
2014-09-22 15:23:00,81.0,59.0,-100.00,WSW,241,7.0,10.0,48,-99.99,,,-99.99,,2014-09-22 22:23:00,
2014-09-22 15:52:00,80.0,59.0,-100.00,SW,231,6.0,10.0,49,-99.99,,,-99.99,,2014-09-22 22:52:00,
2014-09-22 16:22:00,81.0,59.0,-100.00,SW,231,5.0,9.0,48,-99.99,,,-99.99,,2014-09-22 23:22:00,
2014-09-22 16:52:00,82.0,59.0,-100.00,SW,229,5.0,9.0,46,-99.99,,,-99.99,,2014-09-22 23:52:00,
2014-09-22 17:21:00,82.0,59.0,-100.00,SW,223,5.0,10.0,45,-99.99,,,-99.99,,2014-09-23 00:21:00,
2014-09-22 17:52:00,80.0,59.0,-100.00,WSW,244,4.0,8.0,48,-99.99,,,-99.99,,2014-09-23 00:52:00,
2014-09-22 18:21:00,79.0,59.0,-100.00,SW,234,5.0,9.0,51,-99.99,,,-99.99,,2014-09-23 01:21:00,
2014-09-22 18:52:00,77.0,60.0,-100.00,SW,231,3.0,5.0,55,-99.99,,,-99.99,,2014-09-23 01:52:00,
2014-09-22 19:21:00,74.0,60.0,-100.00,West,261,3.0,5.0,61,-99.99,,,-99.99,,2014-09-23 02:21:00,
2014-09-22 19:52:00,71.0,60.0,-100.00,West,260,2.0,4.0,68,-99.99,,,-99.99,,2014-09-23 02:52:00,
2014-09-22 20:21:00,71.0,60.0,-100.00,WNW,287,1.0,2.0,69,-99.99,,,-99.99,,2014-09-23 03:21:00,
2014-09-22 20:54:00,69.0,58.0,-100.00,ENE,62,2.0,5.0,69,-99.99,,,-99.99,,2014-09-23 03:54:00,
2014-09-22 21:23:00,69.0,59.0,-100.00,North,1,2.0,4.0,70,-99.99,,,-99.99,,2014-09-23 04:23:00,
2014-09-22 21:53:00,68.0,57.0,-100.00,NE,54,1.0,4.0,69,-99.99,,,-99.99,,2014-09-23 04:53:00,
2014-09-22 22:22:00,68.0,57.0,-100.00,ENE,61,2.0,4.0,69,-99.99,,,-99.99,,2014-09-23 05:22:00,
2014-09-22 22:52:00,67.0,57.0,-100.00,NNE,30,2.0,4.0,70,-99.99,,,-99.99,,2014-09-23 05:52:00,